Time,TemperatureF,DewpointF,PressureIn,WindDirection,WindDirectionDegrees,WindSpeedMPH,WindSpeedGustMPH,Humidity,HourlyPrecipIn,Conditions,Clouds,dailyrainin,SoftwareType,DateUTC
2013-08-15 00:01:00,74.7,73.2,30.01,North,0,0.0,2.0,95,0.00,,,1.75,meteohub,2013-08-15 04:01:00,
2013-08-15 00:02:00,74.7,73.2,30.01,North,0,2.0,2.0,95,0.00,,,1.75,meteohub,2013-08-15 04:02:00,
2013-08-15 00:04:00,74.7,73.2,30.01,North,0,0.0,2.0,95,0.00,,,1.75,meteohub,2013-08-15 04:04:00,
2013-08-15 00:09:00,74.7,73.2,30.01,North,0,1.0,2.0,95,0.00,,,1.75,meteohub,2013-08-15 04:09:00,
2013-08-15 00:14:00,74.7,73.2,30.01,North,0,0.0,2.0,95,0.00,,,1.75,meteohub,2013-08-15 04:14:00,
2013-08-15 00:20:00,74.7,73.2,30.01,North,0,0.0,2.0,95,0.00,,,1.75,meteohub,2013-08-15 04:20:00,
2013-08-15 00:26:00,74.7,73.2,30.01,North,0,0.0,2.0,95,0.00,,,1.75,meteohub,2013-08-15 04:26:00,
2013-08-15 00:32:00,74.8,73.2,30.01,North,0,0.0,2.0,95,0.00,,,1.75,meteohub,2013-08-15 04:32:00,
2013-08-15 00:37:00,74.8,73.2,30.01,North,0,0.0,1.0,95,0.00,,,1.75,meteohub,2013-08-15 04:37:00,
2013-08-15 00:42:00,74.8,73.2,30.00,North,0,0.0,1.0,95,0.00,,,1.75,meteohub,2013-08-15 04:42:00,
2013-08-15 00:47:00,74.8,73.2,30.00,North,0,0.0,0.0,95,0.00,,,1.75,meteohub,2013-08-15 04:47:00,
2013-08-15 00:52:00,74.8,73.2,30.00,North,0,0.0,0.0,95,0.00,,,1.75,meteohub,2013-08-15 04:52:00,
2013-08-15 00:57:00,74.8,73.2,30.00,North,0,0.0,0.0,95,0.00,,,1.75,meteohub,2013-08-15 04:57:00,
2013-08-15 01:02:00,74.8,73.2,30.00,North,0,0.0,2.0,95,0.00,,,1.75,meteohub,2013-08-15 05:02:00,
2013-08-15 01:07:00,74.8,73.2,30.00,North,0,1.0,2.0,95,0.00,,,1.75,meteohub,2013-08-15 05:07:00,
2013-08-15 01:12:00,74.8,73.2,29.99,North,0,0.0,3.0,95,0.00,,,1.75,meteohub,2013-08-15 05:12:00,
2013-08-15 01:17:00,75.0,73.8,29.99,North,0,0.0,3.0,96,0.00,,,1.75,meteohub,2013-08-15 05:17:00,
2013-08-15 01:22:00,75.0,73.8,29.99,North,0,0.0,3.0,96,0.00,,,1.75,meteohub,2013-08-15 05:22:00,
2013-08-15 01:27:00,75.2,73.9,29.99,North,0,0.0,3.0,96,0.00,,,1.75,meteohub,2013-08-15 05:27:00,
2013-08-15 01:32:00,75.2,73.9,29.99,North,0,0.0,3.0,96,0.00,,,1.75,meteohub,2013-08-15 05:32:00,
2013-08-15 01:37:00,75.2,73.9,29.99,North,0,3.0,3.0,96,0.00,,,1.75,meteohub,2013-08-15 05:37:00,
2013-08-15 01:42:00,75.4,74.1,29.99,North,0,0.0,4.0,96,0.00,,,1.75,meteohub,2013-08-15 05:42:00,
2013-08-15 01:47:00,75.4,74.1,29.98,North,0,0.0,4.0,96,0.00,,,1.75,meteohub,2013-08-15 05:47:00,
2013-08-15 01:52:00,75.4,73.8,29.98,North,0,0.0,4.0,95,0.00,,,1.75,meteohub,2013-08-15 05:52:00,
2013-08-15 01:57:00,75.4,73.8,29.98,North,0,2.0,4.0,95,0.00,,,1.75,meteohub,2013-08-15 05:57:00,
2013-08-15 02:02:00,75.6,73.9,29.98,North,0,1.0,3.0,95,0.00,,,1.75,meteohub,2013-08-15 06:02:00,
2013-08-15 02:07:00,75.6,73.9,29.98,North,0,0.0,3.0,95,0.00,,,1.75,meteohub,2013-08-15 06:07:00,
2013-08-15 02:12:00,75.6,73.9,29.97,North,0,0.0,3.0,95,0.00,,,1.75,meteohub,2013-08-15 06:12:00,
2013-08-15 02:17:00,75.6,73.9,29.97,North,0,0.0,3.0,95,0.00,,,1.75,meteohub,2013-08-15 06:17:00,
2013-08-15 02:22:00,75.6,73.9,29.98,North,0,0.0,3.0,95,0.00,,,1.75,meteohub,2013-08-15 06:22:00,
2013-08-15 02:27:00,75.6,73.9,29.98,North,0,2.0,3.0,95,0.00,,,1.75,meteohub,2013-08-15 06:27:00,
2013-08-15 02:32:00,75.6,73.9,29.97,North,0,3.0,3.0,95,0.00,,,1.75,meteohub,2013-08-15 06:32:00,
2013-08-15 02:37:00,75.6,73.9,29.97,North,0,0.0,5.0,95,0.00,,,1.75,meteohub,2013-08-15 06:37:00,
2013-08-15 02:42:00,75.6,73.9,29.97,North,0,0.0,5.0,95,0.00,,,1.75,meteohub,2013-08-15 06:42:00,
2013-08-15 02:47:00,75.6,73.9,29.97,North,0,2.0,5.0,95,0.00,,,1.75,meteohub,2013-08-15 06:47:00,
2013-08-15 02:52:00,75.6,73.9,29.97,North,0,1.0,4.0,95,0.00,,,1.75,meteohub,2013-08-15 06:52:00,
2013-08-15 02:57:00,75.7,74.5,29.97,North,0,0.0,4.0,96,0.00,,,1.75,meteohub,2013-08-15 06:57:00,
2013-08-15 03:02:00,75.7,74.5,29.97,North,0,0.0,4.0,96,0.00,,,1.75,meteohub,2013-08-15 07:02:00,
2013-08-15 03:07:00,75.7,74.5,29.97,North,0,0.0,4.0,96,0.00,,,1.75,meteohub,2013-08-15 07:07:00,
2013-08-15 03:12:00,75.7,74.5,29.97,North,0,2.0,4.0,96,0.00,,,1.75,meteohub,2013-08-15 07:12:00,
2013-08-15 03:17:00,75.7,74.5,29.97,North,0,0.0,1.0,96,0.00,,,1.75,meteohub,2013-08-15 07:17:00,
2013-08-15 03:22:00,75.7,74.5,29.97,North,0,0.0,2.0,96,0.00,,,1.75,meteohub,2013-08-15 07:22:00,
2013-08-15 03:27:00,75.7,74.5,29.97,North,0,0.0,3.0,96,0.00,,,1.75,meteohub,2013-08-15 07:27:00,
2013-08-15 03:32:00,75.7,74.5,29.96,North,0,0.0,3.0,96,0.00,,,1.75,meteohub,2013-08-15 07:32:00,
2013-08-15 03:37:00,75.7,74.5,29.97,North,0,0.0,3.0,96,0.00,,,1.75,meteohub,2013-08-15 07:37:00,
2013-08-15 03:42:00,75.7,74.5,29.97,North,0,0.0,0.0,96,0.00,,,1.75,meteohub,2013-08-15 07:42:00,
2013-08-15 03:47:00,75.7,74.5,29.97,North,0,0.0,0.0,96,0.00,,,1.75,meteohub,2013-08-15 07:47:00,
2013-08-15 03:52:00,75.7,74.5,29.96,North,0,0.0,1.0,96,0.00,,,1.75,meteohub,2013-08-15 07:52:00,
2013-08-15 03:57:00,75.7,74.5,29.96,North,0,0.0,2.0,96,0.00,,,1.75,meteohub,2013-08-15 07:57:00,
2013-08-15 04:02:00,75.7,74.5,29.96,North,0,1.0,3.0,96,0.00,,,1.75,meteohub,2013-08-15 08:02:00,
2013-08-15 04:07:00,75.9,74.7,29.96,North,0,2.0,3.0,96,0.00,,,1.75,meteohub,2013-08-15 08:07:00,
2013-08-15 04:13:00,75.7,74.5,29.96,North,0,2.0,3.0,96,0.00,,,1.75,meteohub,2013-08-15 08:13:00,
2013-08-15 04:18:00,75.7,74.5,29.96,North,0,0.0,4.0,96,0.00,,,1.75,meteohub,2013-08-15 08:18:00,
2013-08-15 04:24:00,75.7,74.5,29.96,North,0,0.0,4.0,96,0.00,,,1.75,meteohub,2013-08-15 08:24:00,
2013-08-15 04:30:00,75.7,74.5,29.96,North,0,0.0,4.0,96,0.00,,,1.75,meteohub,2013-08-15 08:30:00,
2013-08-15 04:36:00,75.7,74.5,29.96,North,0,0.0,3.0,96,0.00,,,1.75,meteohub,2013-08-15 08:36:00,
2013-08-15 04:42:00,75.7,74.5,29.96,North,0,1.0,2.0,96,0.00,,,1.75,meteohub,2013-08-15 08:42:00,
2013-08-15 04:47:00,75.7,74.5,29.96,North,0,0.0,1.0,96,0.00,,,1.75,meteohub,2013-08-15 08:47:00,
2013-08-15 04:52:00,75.7,74.5,29.96,North,0,0.0,2.0,96,0.00,,,1.75,meteohub,2013-08-15 08:52:00,
2013-08-15 04:57:00,75.7,74.5,29.96,North,0,0.0,3.0,96,0.00,,,1.75,meteohub,2013-08-15 08:57:00,
2013-08-15 05:02:00,75.7,74.5,29.97,North,0,0.0,3.0,96,0.00,,,1.75,meteohub,2013-08-15 09:02:00,
2013-08-15 05:07:00,75.7,74.5,29.97,North,0,0.0,3.0,96,0.00,,,1.75,meteohub,2013-08-15 09:07:00,
2013-08-15 05:12:00,75.7,74.5,29.97,North,0,0.0,3.0,96,0.00,,,1.75,meteohub,2013-08-15 09:12:00,
2013-08-15 05:17:00,75.7,74.5,29.97,North,0,0.0,2.0,96,0.00,,,1.75,meteohub,2013-08-15 09:17:00,
2013-08-15 05:22:00,75.7,74.5,29.98,North,0,0.0,2.0,96,0.00,,,1.75,meteohub,2013-08-15 09:22:00,
2013-08-15 05:27:00,75.7,74.5,29.98,North,0,0.0,2.0,96,0.00,,,1.75,meteohub,2013-08-15 09:27:00,
2013-08-15 05:32:00,75.6,74.3,29.98,North,0,0.0,1.0,96,0.00,,,1.75,meteohub,2013-08-15 09:32:00,
2013-08-15 05:37:00,75.6,74.3,29.98,North,0,0.0,1.0,96,0.00,,,1.75,meteohub,2013-08-15 09:37:00,
2013-08-15 05:42:00,75.6,74.3,29.98,North,0,2.0,2.0,96,0.00,,,1.75,meteohub,2013-08-15 09:42:00,
2013-08-15 05:47:00,75.6,74.3,29.98,North,0,0.0,4.0,96,0.00,,,1.75,meteohub,2013-08-15 09:47:00,
2013-08-15 05:52:00,75.6,74.3,29.98,North,0,0.0,4.0,96,0.00,,,1.75,meteohub,2013-08-15 09:52:00,
2013-08-15 05:57:00,75.6,74.3,29.98,North,0,0.0,4.0,96,0.00,,,1.75,meteohub,2013-08-15 09:57:00,
2013-08-15 06:02:00,75.6,74.3,29.98,North,0,0.0,4.0,96,0.00,,,1.75,meteohub,2013-08-15 10:02:00,
2013-08-15 06:07:00,75.6,74.3,29.98,North,0,0.0,0.0,96,0.00,,,1.75,meteohub,2013-08-15 10:07:00,
2013-08-15 06:12:00,75.6,74.3,29.98,North,0,0.0,0.0,96,0.00,,,1.75,meteohub,2013-08-15 10:12:00,
2013-08-15 06:17:00,75.6,74.3,29.98,North,0,0.0,0.0,96,0.00,,,1.75,meteohub,2013-08-15 10:17:00,
2013-08-15 06:22:00,75.6,74.3,29.98,North,0,0.0,0.0,96,0.00,,,1.75,meteohub,2013-08-15 10:22:00,
2013-08-15 06:27:00,75.6,74.3,29.98,North,0,0.0,1.0,96,0.00,,,1.75,meteohub,2013-08-15 10:27:00,
2013-08-15 06:32:00,75.6,74.3,29.98,North,0,2.0,2.0,96,0.00,,,1.75,meteohub,2013-08-15 10:32:00,
2013-08-15 06:37:00,75.6,74.3,29.99,North,0,1.0,4.0,96,0.00,,,1.75,meteohub,2013-08-15 10:37:00,
2013-08-15 06:42:00,75.6,74.3,29.99,North,0,0.0,4.0,96,0.00,,,1.75,meteohub,2013-08-15 10:42:00,
2013-08-15 06:47:00,75.6,74.3,29.99,North,0,2.0,4.0,96,0.00,,,1.75,meteohub,2013-08-15 10:47:00,
2013-08-15 06:52:00,75.6,74.3,30.00,North,0,0.0,4.0,96,0.00,,,1.75,meteohub,2013-08-15 10:52:00,
2013-08-15 06:57:00,75.6,74.3,30.01,North,0,0.0,3.0,96,0.00,,,1.75,meteohub,2013-08-15 10:57:00,
2013-08-15 07:02:00,75.7,74.5,30.00,North,0,0.0,4.0,96,0.00,,,1.75,meteohub,2013-08-15 11:02:00,
2013-08-15 07:07:00,75.7,74.5,30.01,North,0,0.0,4.0,96,0.00,,,1.75,meteohub,2013-08-15 11:07:00,
2013-08-15 07:12:00,75.7,74.5,30.01,North,0,0.0,4.0,96,0.00,,,1.75,meteohub,2013-08-15 11:12:00,
2013-08-15 07:17:00,75.7,74.5,30.01,North,0,0.0,3.0,96,0.00,,,1.75,meteohub,2013-08-15 11:17:00,
2013-08-15 07:22:00,75.7,74.5,30.01,North,0,0.0,3.0,96,0.00,,,1.75,meteohub,2013-08-15 11:22:00,
2013-08-15 07:27:00,75.9,74.7,30.01,North,0,0.0,4.0,96,0.00,,,1.75,meteohub,2013-08-15 11:27:00,
2013-08-15 07:32:00,75.9,74.7,30.01,North,0,0.0,4.0,96,0.00,,,1.75,meteohub,2013-08-15 11:32:00,
2013-08-15 07:37:00,75.9,74.7,30.01,North,0,0.0,4.0,96,0.00,,,1.75,meteohub,2013-08-15 11:37:00,
2013-08-15 07:42:00,76.3,75.0,30.02,North,0,1.0,4.0,96,0.00,,,1.75,meteohub,2013-08-15 11:42:00,
2013-08-15 07:47:00,76.3,75.0,30.02,North,0,0.0,3.0,96,0.00,,,1.75,meteohub,2013-08-15 11:47:00,
2013-08-15 07:52:00,76.5,75.2,30.02,North,0,1.0,5.0,96,0.00,,,1.75,meteohub,2013-08-15 11:52:00,
2013-08-15 07:57:00,76.6,75.4,30.01,North,0,2.0,5.0,96,0.00,,,1.75,meteohub,2013-08-15 11:57:00,
2013-08-15 08:02:00,76.8,75.2,30.02,North,0,1.0,5.0,95,0.00,,,1.75,meteohub,2013-08-15 12:02:00,
2013-08-15 08:07:00,77.2,75.6,30.02,North,0,1.0,6.0,95,0.00,,,1.75,meteohub,2013-08-15 12:07:00,
2013-08-15 08:12:00,77.5,75.9,30.02,North,0,0.0,6.0,95,0.00,,,1.75,meteohub,2013-08-15 12:12:00,
2013-08-15 08:17:00,77.5,75.7,30.02,North,0,4.0,6.0,94,0.00,,,1.75,meteohub,2013-08-15 12:17:00,
2013-08-15 08:22:00,77.9,76.1,30.02,North,0,0.0,6.0,94,0.00,,,1.75,meteohub,2013-08-15 12:22:00,
2013-08-15 08:27:00,78.3,76.5,30.02,North,0,2.0,5.0,94,0.00,,,1.75,meteohub,2013-08-15 12:27:00,
2013-08-15 08:32:00,78.3,76.5,30.03,North,0,0.0,5.0,94,0.00,,,1.75,meteohub,2013-08-15 12:32:00,
2013-08-15 08:37:00,78.4,76.3,30.02,North,0,0.0,3.0,93,0.00,,,1.75,meteohub,2013-08-15 12:37:00,
2013-08-15 08:42:00,78.8,76.6,30.02,North,0,2.0,3.0,93,0.00,,,1.75,meteohub,2013-08-15 12:42:00,
2013-08-15 08:47:00,79.0,76.8,30.03,North,0,4.0,6.0,93,0.00,,,1.75,meteohub,2013-08-15 12:47:00,
2013-08-15 08:52:00,79.0,76.5,30.03,North,0,0.0,6.0,92,0.00,,,1.75,meteohub,2013-08-15 12:52:00,
2013-08-15 08:57:00,79.2,76.3,30.03,North,0,2.0,7.0,91,0.00,,,1.75,meteohub,2013-08-15 12:57:00,
2013-08-15 09:02:00,79.2,76.3,30.03,North,0,2.0,7.0,91,0.00,,,1.75,meteohub,2013-08-15 13:02:00,
2013-08-15 09:07:00,79.5,76.6,30.03,North,0,3.0,8.0,91,0.00,,,1.75,meteohub,2013-08-15 13:07:00,
2013-08-15 09:12:00,79.9,76.3,30.03,North,0,2.0,8.0,89,0.00,,,1.75,meteohub,2013-08-15 13:12:00,
2013-08-15 09:17:00,80.1,76.5,30.03,North,0,1.0,8.0,89,0.00,,,1.75,meteohub,2013-08-15 13:17:00,
2013-08-15 09:22:00,80.4,76.5,30.03,North,0,2.0,6.0,88,0.00,,,1.75,meteohub,2013-08-15 13:22:00,
2013-08-15 09:27:00,81.0,76.6,30.03,North,0,4.0,6.0,87,0.00,,,1.75,meteohub,2013-08-15 13:27:00,
2013-08-15 09:32:00,81.3,76.6,30.03,North,0,1.0,6.0,86,0.00,,,1.75,meteohub,2013-08-15 13:32:00,
2013-08-15 09:37:00,81.9,77.2,30.03,North,0,0.0,4.0,86,0.00,,,1.75,meteohub,2013-08-15 13:37:00,
2013-08-15 09:42:00,82.4,77.4,30.03,North,0,0.0,4.0,85,0.00,,,1.75,meteohub,2013-08-15 13:42:00,
2013-08-15 09:47:00,82.6,77.2,30.03,North,0,3.0,3.0,84,0.00,,,1.75,meteohub,2013-08-15 13:47:00,
2013-08-15 09:52:00,82.4,77.0,30.03,North,0,2.0,3.0,84,0.00,,,1.75,meteohub,2013-08-15 13:52:00,
2013-08-15 09:57:00,82.8,77.4,30.03,North,0,0.0,5.0,84,0.00,,,1.75,meteohub,2013-08-15 13:57:00,
2013-08-15 10:02:00,82.9,77.5,30.03,North,0,1.0,5.0,84,0.00,,,1.75,meteohub,2013-08-15 14:02:00,
2013-08-15 10:07:00,83.1,77.7,30.03,North,0,2.0,5.0,84,0.00,,,1.75,meteohub,2013-08-15 14:07:00,
2013-08-15 10:12:00,83.3,77.5,30.03,North,0,1.0,5.0,83,0.00,,,1.75,meteohub,2013-08-15 14:12:00,
2013-08-15 10:17:00,83.5,77.4,30.03,North,0,3.0,5.0,82,0.00,,,1.75,meteohub,2013-08-15 14:17:00,
2013-08-15 10:22:00,83.7,77.5,30.03,North,0,1.0,7.0,82,0.00,,,1.75,meteohub,2013-08-15 14:22:00,
2013-08-15 10:27:00,84.0,77.9,30.03,North,0,1.0,7.0,82,0.00,,,1.75,meteohub,2013-08-15 14:27:00,
2013-08-15 10:32:00,84.0,77.5,30.03,North,0,3.0,7.0,81,0.00,,,1.75,meteohub,2013-08-15 14:32:00,
2013-08-15 10:37:00,84.2,77.7,30.03,North,0,5.0,6.0,81,0.00,,,1.75,meteohub,2013-08-15 14:37:00,
2013-08-15 10:42:00,84.6,77.7,30.03,North,0,2.0,6.0,80,0.00,,,1.75,meteohub,2013-08-15 14:42:00,
2013-08-15 10:47:00,84.7,77.2,30.03,North,0,1.0,5.0,78,0.00,,,1.75,meteohub,2013-08-15 14:47:00,
2013-08-15 10:53:00,85.3,78.1,30.03,North,0,1.0,6.0,79,0.00,,,1.75,meteohub,2013-08-15 14:53:00,
2013-08-15 10:59:00,85.8,78.1,30.04,North,0,3.0,6.0,78,0.00,,,1.75,meteohub,2013-08-15 14:59:00,
2013-08-15 11:04:00,85.8,77.4,30.03,North,0,3.0,7.0,76,0.00,,,1.75,meteohub,2013-08-15 15:04:00,
2013-08-15 11:10:00,85.8,77.7,30.03,North,0,4.0,7.0,77,0.00,,,1.75,meteohub,2013-08-15 15:10:00,
2013-08-15 11:15:00,85.8,77.4,30.03,North,0,5.0,7.0,76,0.00,,,1.75,meteohub,2013-08-15 15:15:00,
2013-08-15 11:20:00,85.6,76.8,30.04,North,0,4.0,7.0,75,0.00,,,1.75,meteohub,2013-08-15 15:20:00,
2013-08-15 11:26:00,85.3,76.8,30.04,North,0,6.0,8.0,76,0.00,,,1.75,meteohub,2013-08-15 15:26:00,
2013-08-15 11:32:00,85.1,76.6,30.03,North,0,2.0,8.0,76,0.00,,,1.75,meteohub,2013-08-15 15:32:00,
2013-08-15 11:37:00,85.3,76.8,30.03,North,0,4.0,8.0,76,0.00,,,1.75,meteohub,2013-08-15 15:37:00,
2013-08-15 11:42:00,85.5,77.0,30.03,North,0,2.0,8.0,76,0.00,,,1.75,meteohub,2013-08-15 15:42:00,
2013-08-15 11:47:00,85.6,76.5,30.03,North,0,3.0,8.0,74,0.00,,,1.75,meteohub,2013-08-15 15:47:00,
2013-08-15 11:52:00,86.2,76.5,30.03,North,0,7.0,9.0,73,0.00,,,1.75,meteohub,2013-08-15 15:52:00,
2013-08-15 11:57:00,86.5,75.9,30.03,North,0,5.0,9.0,71,0.00,,,1.75,meteohub,2013-08-15 15:57:00,
2013-08-15 12:02:00,86.5,75.6,30.02,North,0,9.0,12.0,70,0.00,,,1.75,meteohub,2013-08-15 16:02:00,
2013-08-15 12:07:00,86.7,76.1,30.03,North,0,3.0,12.0,71,0.00,,,1.75,meteohub,2013-08-15 16:07:00,
2013-08-15 12:12:00,87.1,76.5,30.03,North,0,0.0,12.0,71,0.00,,,1.75,meteohub,2013-08-15 16:12:00,
2013-08-15 12:18:00,87.3,76.3,30.02,North,0,1.0,10.0,70,0.00,,,1.75,meteohub,2013-08-15 16:18:00,
2013-08-15 12:24:00,87.1,76.5,30.01,North,0,1.0,8.0,71,0.00,,,1.75,meteohub,2013-08-15 16:24:00,
2013-08-15 12:29:00,86.9,75.9,30.02,North,0,5.0,8.0,70,0.00,,,1.75,meteohub,2013-08-15 16:29:00,
2013-08-15 12:35:00,87.1,76.5,30.02,North,0,2.0,8.0,71,0.00,,,1.75,meteohub,2013-08-15 16:35:00,
2013-08-15 12:40:00,87.3,75.4,30.02,North,0,8.0,8.0,68,0.00,,,1.75,meteohub,2013-08-15 16:40:00,
2013-08-15 12:46:00,87.8,75.9,30.01,North,0,3.0,8.0,68,0.00,,,1.75,meteohub,2013-08-15 16:46:00,
2013-08-15 12:52:00,88.2,76.3,30.01,North,0,4.0,8.0,68,0.00,,,1.75,meteohub,2013-08-15 16:52:00,
2013-08-15 12:57:00,88.3,75.0,30.01,North,0,3.0,8.0,65,0.00,,,1.75,meteohub,2013-08-15 16:57:00,
2013-08-15 13:02:00,88.5,75.7,30.01,North,0,4.0,8.0,66,0.00,,,1.75,meteohub,2013-08-15 17:02:00,
2013-08-15 13:07:00,88.5,75.7,30.01,North,0,0.0,8.0,66,0.00,,,1.75,meteohub,2013-08-15 17:07:00,
2013-08-15 13:13:00,89.1,76.3,30.00,North,0,3.0,8.0,66,0.00,,,1.75,meteohub,2013-08-15 17:13:00,
2013-08-15 13:19:00,89.2,75.9,30.00,North,0,6.0,9.0,65,0.00,,,1.75,meteohub,2013-08-15 17:19:00,
2013-08-15 13:25:00,89.2,75.9,30.00,North,0,0.0,9.0,65,0.00,,,1.75,meteohub,2013-08-15 17:25:00,
2013-08-15 13:30:00,89.4,75.6,30.00,North,0,4.0,9.0,64,0.00,,,1.75,meteohub,2013-08-15 17:30:00,
2013-08-15 13:36:00,89.6,75.4,30.00,North,0,4.0,10.0,63,0.00,,,1.75,meteohub,2013-08-15 17:36:00,
2013-08-15 13:41:00,89.4,75.6,30.00,North,0,4.0,11.0,64,0.00,,,1.75,meteohub,2013-08-15 17:41:00,
2013-08-15 13:46:00,89.8,76.5,29.99,North,0,4.0,11.0,65,0.00,,,1.75,meteohub,2013-08-15 17:46:00,
2013-08-15 13:52:00,90.0,76.6,29.99,North,0,2.0,11.0,65,0.00,,,1.75,meteohub,2013-08-15 17:52:00,
2013-08-15 13:57:00,90.3,75.9,29.99,North,0,5.0,9.0,63,0.00,,,1.75,meteohub,2013-08-15 17:57:00,
2013-08-15 14:02:00,90.5,76.6,29.99,North,0,2.0,9.0,64,0.00,,,1.75,meteohub,2013-08-15 18:02:00,
2013-08-15 14:07:00,90.9,76.5,29.99,North,0,3.0,8.0,63,0.00,,,1.75,meteohub,2013-08-15 18:07:00,
2013-08-15 14:12:00,91.4,76.1,29.99,North,0,5.0,8.0,61,0.00,,,1.75,meteohub,2013-08-15 18:12:00,
2013-08-15 14:18:00,91.8,75.9,29.98,North,0,7.0,12.0,60,0.00,,,1.75,meteohub,2013-08-15 18:18:00,
2013-08-15 14:24:00,91.8,75.4,29.98,North,0,3.0,12.0,59,0.00,,,1.75,meteohub,2013-08-15 18:24:00,
2013-08-15 14:29:00,91.8,76.8,29.98,North,0,2.0,9.0,62,0.00,,,1.75,meteohub,2013-08-15 18:29:00,
2013-08-15 14:34:00,92.1,75.7,29.98,North,0,1.0,9.0,59,0.00,,,1.75,meteohub,2013-08-15 18:34:00,
2013-08-15 14:40:00,92.1,75.2,29.97,North,0,1.0,9.0,58,0.00,,,1.75,meteohub,2013-08-15 18:40:00,
2013-08-15 14:45:00,91.8,75.4,29.97,North,0,5.0,8.0,59,0.00,,,1.75,meteohub,2013-08-15 18:45:00,
2013-08-15 14:51:00,91.0,75.7,29.96,North,0,7.0,8.0,61,0.00,,,1.75,meteohub,2013-08-15 18:51:00,
2013-08-15 14:57:00,91.6,76.3,29.96,North,0,2.0,8.0,61,0.00,,,1.75,meteohub,2013-08-15 18:57:00,
2013-08-15 15:02:00,91.9,76.6,29.96,North,0,3.0,8.0,61,0.00,,,1.75,meteohub,2013-08-15 19:02:00,
2013-08-15 15:07:00,92.5,75.6,29.96,North,0,0.0,8.0,58,0.00,,,1.75,meteohub,2013-08-15 19:07:00,
2013-08-15 15:13:00,93.0,76.1,29.96,North,0,1.0,7.0,58,0.00,,,1.75,meteohub,2013-08-15 19:13:00,
2013-08-15 15:18:00,93.2,76.3,29.96,North,0,4.0,6.0,58,0.00,,,1.75,meteohub,2013-08-15 19:18:00,
2013-08-15 15:27:00,94.3,76.1,29.95,North,0,2.0,8.0,56,0.00,,,1.75,meteohub,2013-08-15 19:27:00,
2013-08-15 15:32:00,93.6,75.6,29.95,North,0,1.0,8.0,56,0.00,,,1.75,meteohub,2013-08-15 19:32:00,
2013-08-15 15:37:00,93.4,75.9,29.94,North,0,3.0,8.0,57,0.00,,,1.75,meteohub,2013-08-15 19:37:00,
2013-08-15 15:43:00,92.8,75.9,29.95,North,0,7.0,8.0,58,0.00,,,1.75,meteohub,2013-08-15 19:43:00,
2013-08-15 15:49:00,93.2,75.7,29.95,North,0,0.0,9.0,57,0.00,,,1.75,meteohub,2013-08-15 19:49:00,
2013-08-15 15:55:00,92.8,76.5,29.94,North,0,4.0,9.0,59,0.00,,,1.75,meteohub,2013-08-15 19:55:00,
2013-08-15 16:00:00,93.0,78.1,29.94,North,0,6.0,8.0,62,0.00,,,1.75,meteohub,2013-08-15 20:00:00,
2013-08-15 16:06:00,92.8,77.9,29.94,North,0,1.0,9.0,62,0.00,,,1.75,meteohub,2013-08-15 20:06:00,
2013-08-15 16:12:00,92.8,77.4,29.94,North,0,1.0,9.0,61,0.00,,,1.75,meteohub,2013-08-15 20:12:00,
2013-08-15 16:18:00,92.8,77.9,29.94,North,0,3.0,9.0,62,0.00,,,1.75,meteohub,2013-08-15 20:18:00,
2013-08-15 16:23:00,91.9,78.1,29.94,North,0,4.0,9.0,64,0.00,,,1.75,meteohub,2013-08-15 20:23:00,
2013-08-15 16:28:00,91.8,77.9,29.94,North,0,3.0,9.0,64,0.00,,,1.75,meteohub,2013-08-15 20:28:00,
2013-08-15 16:34:00,92.1,78.3,29.94,North,0,7.0,9.0,64,0.00,,,1.75,meteohub,2013-08-15 20:34:00,
2013-08-15 16:40:00,92.3,78.3,29.95,North,0,2.0,9.0,64,0.00,,,1.75,meteohub,2013-08-15 20:40:00,
2013-08-15 16:45:00,92.1,78.3,29.95,North,0,2.0,9.0,64,0.00,,,1.75,meteohub,2013-08-15 20:45:00,
2013-08-15 16:51:00,91.4,77.9,29.95,North,0,3.0,9.0,65,0.00,,,1.75,meteohub,2013-08-15 20:51:00,
2013-08-15 16:56:00,90.7,77.4,29.95,North,0,2.0,9.0,65,0.00,,,1.75,meteohub,2013-08-15 20:56:00,
2013-08-15 17:02:00,90.3,77.4,29.95,North,0,6.0,10.0,66,0.00,,,1.75,meteohub,2013-08-15 21:02:00,
2013-08-15 17:07:00,90.1,77.7,29.94,North,0,6.0,10.0,67,0.00,,,1.75,meteohub,2013-08-15 21:07:00,
2013-08-15 17:08:00,90.1,78.1,29.94,North,0,3.0,10.0,68,0.00,,,1.75,meteohub,2013-08-15 21:08:00,
2013-08-15 17:14:00,89.8,77.7,29.94,North,0,7.0,12.0,68,0.00,,,1.75,meteohub,2013-08-15 21:14:00,
2013-08-15 17:19:00,89.2,77.7,29.94,North,0,3.0,12.0,69,0.00,,,1.75,meteohub,2013-08-15 21:19:00,
2013-08-15 17:25:00,88.9,77.9,29.94,North,0,7.0,12.0,70,0.00,,,1.75,meteohub,2013-08-15 21:25:00,
2013-08-15 17:30:00,88.3,77.7,29.94,North,0,5.0,11.0,71,0.00,,,1.75,meteohub,2013-08-15 21:30:00,
2013-08-15 17:35:00,88.2,77.5,29.94,North,0,9.0,11.0,71,0.00,,,1.75,meteohub,2013-08-15 21:35:00,
2013-08-15 17:40:00,88.0,76.5,29.93,North,0,3.0,11.0,69,0.00,,,1.75,meteohub,2013-08-15 21:40:00,
2013-08-15 17:46:00,87.6,75.4,29.94,North,0,13.0,13.0,67,0.00,,,1.75,meteohub,2013-08-15 21:46:00,
2013-08-15 17:52:00,87.1,75.2,29.94,North,0,3.0,10.0,68,0.00,,,1.75,meteohub,2013-08-15 21:52:00,
2013-08-15 17:57:00,86.5,75.2,29.96,North,0,9.0,13.0,69,0.00,,,1.75,meteohub,2013-08-15 21:57:00,
2013-08-15 18:00:00,84.7,73.4,29.97,North,0,10.0,15.0,69,0.00,,,1.75,meteohub,2013-08-15 22:00:00,
2013-08-15 18:02:00,83.8,73.8,29.97,North,0,4.0,15.0,72,0.00,,,1.75,meteohub,2013-08-15 22:02:00,
2013-08-15 18:12:00,79.2,74.7,30.01,North,0,8.0,19.0,86,0.00,,,1.86,meteohub,2013-08-15 22:12:00,
2013-08-15 18:17:00,77.5,72.3,29.99,North,0,8.0,18.0,84,0.28,,,2.03,meteohub,2013-08-15 22:17:00,
2013-08-15 18:22:00,76.6,71.8,29.97,North,0,2.0,18.0,85,0.28,,,2.16,meteohub,2013-08-15 22:22:00,
2013-08-15 18:27:00,76.5,72.0,29.98,North,0,9.0,18.0,86,0.70,,,2.36,meteohub,2013-08-15 22:27:00,
2013-08-15 18:33:00,76.3,72.5,29.97,North,0,5.0,12.0,88,0.79,,,2.54,meteohub,2013-08-15 22:33:00,
2013-08-15 18:39:00,76.1,72.7,29.99,North,0,1.0,12.0,89,0.91,,,2.60,meteohub,2013-08-15 22:39:00,
2013-08-15 18:45:00,75.7,72.0,29.99,North,0,5.0,10.0,88,0.92,,,2.67,meteohub,2013-08-15 22:45:00,
2013-08-15 18:51:00,75.7,71.6,29.99,North,0,3.0,11.0,87,0.92,,,2.67,meteohub,2013-08-15 22:51:00,
2013-08-15 18:57:00,75.9,71.8,29.99,North,0,4.0,11.0,87,0.92,,,2.67,meteohub,2013-08-15 22:57:00,
2013-08-15 19:05:00,75.9,71.8,30.00,North,0,4.0,11.0,87,0.92,,,2.67,meteohub,2013-08-15 23:05:00,
2013-08-15 19:10:00,76.3,72.1,30.01,North,0,5.0,8.0,87,0.92,,,2.67,meteohub,2013-08-15 23:10:00,
2013-08-15 19:16:00,76.3,72.1,30.01,North,0,5.0,10.0,87,0.71,,,2.67,meteohub,2013-08-15 23:16:00,
2013-08-15 19:22:00,76.3,72.1,30.03,North,0,4.0,10.0,87,0.55,,,2.67,meteohub,2013-08-15 23:22:00,
2013-08-15 19:27:00,75.9,72.1,30.02,North,0,7.0,12.0,88,0.22,,,2.67,meteohub,2013-08-15 23:27:00,
2013-08-15 19:32:00,75.7,72.7,30.02,North,0,5.0,12.0,90,0.22,,,2.67,meteohub,2013-08-15 23:32:00,
2013-08-15 19:37:00,75.6,72.5,30.02,North,0,1.0,13.0,90,0.03,,,2.67,meteohub,2013-08-15 23:37:00,
2013-08-15 19:43:00,75.4,72.5,30.02,North,0,2.0,13.0,91,0.09,,,2.74,meteohub,2013-08-15 23:43:00,
2013-08-15 19:49:00,75.0,72.5,30.01,North,0,0.0,10.0,92,0.11,,,2.77,meteohub,2013-08-15 23:49:00,
2013-08-15 19:55:00,74.8,72.3,30.01,North,0,4.0,4.0,92,0.13,,,2.80,meteohub,2013-08-15 23:55:00,
2013-08-15 20:01:00,74.7,72.5,30.01,North,0,0.0,5.0,93,0.13,,,2.80,meteohub,2013-08-16 00:01:00,
2013-08-15 20:07:00,74.8,73.0,30.01,North,0,0.0,5.0,94,0.13,,,2.80,meteohub,2013-08-16 00:07:00,
2013-08-15 20:12:00,75.0,72.9,30.01,North,0,2.0,5.0,93,0.13,,,0.00,meteohub,2013-08-16 00:12:00,
2013-08-15 20:17:00,74.7,72.5,30.02,North,0,0.0,3.0,93,0.13,,,0.00,meteohub,2013-08-16 00:17:00,
2013-08-15 20:22:00,74.7,72.9,30.02,North,0,0.0,3.0,94,0.13,,,0.00,meteohub,2013-08-16 00:22:00,
2013-08-15 20:27:00,74.7,72.9,30.04,North,0,3.0,6.0,94,0.13,,,0.00,meteohub,2013-08-16 00:27:00,
2013-08-15 20:32:00,74.7,72.9,30.04,North,0,0.0,6.0,94,0.13,,,0.00,meteohub,2013-08-16 00:32:00,
2013-08-15 20:37:00,74.7,72.9,30.04,North,0,0.0,6.0,94,0.13,,,0.00,meteohub,2013-08-16 00:37:00,
2013-08-15 20:42:00,74.7,72.9,30.05,North,0,0.0,6.0,94,0.13,,,0.00,meteohub,2013-08-16 00:42:00,
2013-08-15 20:48:00,74.5,72.7,30.04,North,0,0.0,1.0,94,0.01,,,0.00,meteohub,2013-08-16 00:48:00,
2013-08-15 20:54:00,74.8,73.2,30.04,North,0,0.0,0.0,95,0.00,,,0.00,meteohub,2013-08-16 00:54:00,
2013-08-15 21:00:00,74.8,73.0,30.04,North,0,0.0,0.0,94,0.00,,,0.00,meteohub,2013-08-16 01:00:00,
2013-08-15 21:05:00,74.8,73.2,30.04,North,0,2.0,2.0,95,0.00,,,0.00,meteohub,2013-08-16 01:05:00,
2013-08-15 21:11:00,74.8,73.0,30.04,North,0,0.0,2.0,94,0.00,,,0.00,meteohub,2013-08-16 01:11:00,
2013-08-15 21:16:00,74.8,73.0,30.04,North,0,0.0,3.0,94,0.00,,,0.00,meteohub,2013-08-16 01:16:00,
2013-08-15 21:21:00,74.7,72.9,30.04,North,0,0.0,3.0,94,0.00,,,0.00,meteohub,2013-08-16 01:21:00,
2013-08-15 21:26:00,74.7,72.9,30.05,North,0,2.0,4.0,94,0.00,,,0.00,meteohub,2013-08-16 01:26:00,
2013-08-15 21:32:00,74.7,73.2,30.05,North,0,1.0,4.0,95,0.00,,,0.00,meteohub,2013-08-16 01:32:00,
2013-08-15 21:40:00,74.5,73.0,30.05,North,0,2.0,6.0,95,0.00,,,0.00,meteohub,2013-08-16 01:40:00,
2013-08-15 21:46:00,74.5,73.0,30.06,North,0,1.0,6.0,95,0.00,,,0.00,meteohub,2013-08-16 01:46:00,
2013-08-15 21:52:00,74.1,72.7,30.05,North,0,1.0,5.0,95,0.00,,,0.00,meteohub,2013-08-16 01:52:00,
2013-08-15 21:57:00,74.1,72.7,30.06,North,0,2.0,5.0,95,0.00,,,0.00,meteohub,2013-08-16 01:57:00,
2013-08-15 22:03:00,74.1,72.3,30.06,North,0,1.0,4.0,94,0.00,,,0.00,meteohub,2013-08-16 02:03:00,
2013-08-15 22:09:00,74.1,72.7,30.06,North,0,1.0,4.0,95,0.00,,,0.00,meteohub,2013-08-16 02:09:00,
2013-08-15 22:15:00,74.1,72.7,30.06,North,0,1.0,4.0,95,0.00,,,0.00,meteohub,2013-08-16 02:15:00,
2013-08-15 22:20:00,74.1,72.7,30.06,North,0,1.0,3.0,95,0.00,,,0.00,meteohub,2013-08-16 02:20:00,
2013-08-15 22:26:00,74.3,72.9,30.06,North,0,0.0,3.0,95,0.00,,,0.00,meteohub,2013-08-16 02:26:00,
2013-08-15 22:32:00,74.3,72.9,30.06,North,0,2.0,3.0,95,0.00,,,0.00,meteohub,2013-08-16 02:32:00,
2013-08-15 22:37:00,74.3,72.9,30.06,North,0,1.0,3.0,95,0.00,,,0.00,meteohub,2013-08-16 02:37:00,
2013-08-15 22:42:00,74.3,72.9,30.05,North,0,1.0,3.0,95,0.00,,,0.00,meteohub,2013-08-16 02:42:00,
2013-08-15 22:47:00,74.3,72.9,30.05,North,0,2.0,3.0,95,0.00,,,0.00,meteohub,2013-08-16 02:47:00,
2013-08-15 22:52:00,74.3,72.9,30.05,North,0,2.0,3.0,95,0.00,,,0.00,meteohub,2013-08-16 02:52:00,
2013-08-15 22:57:00,74.3,72.9,30.05,North,0,0.0,4.0,95,0.00,,,0.00,meteohub,2013-08-16 02:57:00,
2013-08-15 23:03:00,74.3,72.9,30.05,North,0,2.0,4.0,95,0.00,,,0.00,meteohub,2013-08-16 03:03:00,
2013-08-15 23:09:00,74.1,72.7,30.05,North,0,2.0,4.0,95,0.00,,,0.00,meteohub,2013-08-16 03:09:00,
2013-08-15 23:15:00,74.1,72.7,30.04,North,0,0.0,4.0,95,0.00,,,0.00,meteohub,2013-08-16 03:15:00,
2013-08-15 23:21:00,74.1,72.7,30.04,North,0,0.0,4.0,95,0.00,,,0.00,meteohub,2013-08-16 03:21:00,
2013-08-15 23:27:00,73.9,72.5,30.04,North,0,0.0,4.0,95,0.00,,,0.00,meteohub,2013-08-16 03:27:00,
2013-08-15 23:32:00,73.9,72.5,30.04,North,0,0.0,2.0,95,0.00,,,0.00,meteohub,2013-08-16 03:32:00,
2013-08-15 23:37:00,73.9,72.5,30.04,North,0,0.0,1.0,95,0.00,,,0.00,meteohub,2013-08-16 03:37:00,
2013-08-15 23:42:00,73.9,72.5,30.03,North,0,0.0,1.0,95,0.00,,,0.00,meteohub,2013-08-16 03:42:00,
2013-08-15 23:47:00,73.9,72.5,30.03,North,0,0.0,0.0,95,0.00,,,0.00,meteohub,2013-08-16 03:47:00,
2013-08-15 23:52:00,73.9,72.5,30.03,North,0,2.0,0.0,95,0.00,,,0.00,meteohub,2013-08-16 03:52:00,
2013-08-15 23:57:00,73.8,72.3,30.03,North,0,0.0,2.0,95,0.00,,,0.00,meteohub,2013-08-16 03:57:00,